createdAt,value
2019-03-10T00:00:02.999Z,8.1
2019-03-10T00:15:07.864Z,8.1
2019-03-10T00:30:10.807Z,8.1
2019-03-10T00:45:06.950Z,8.1
2019-03-10T01:02:17.459Z,8.1
2019-03-10T01:15:05.791Z,8
2019-03-10T01:32:23.762Z,8
2019-03-10T01:45:08.921Z,8.1
2019-03-10T02:00:05.337Z,8.1
2019-03-10T02:15:05.010Z,8.1
2019-03-10T02:30:04.332Z,8.1
2019-03-10T02:45:12.389Z,8
2019-03-10T03:00:12.655Z,7.9
2019-03-10T03:15:09.696Z,7.7
2019-03-10T03:30:11.887Z,7.6
2019-03-10T03:45:06.845Z,7.6
2019-03-10T04:00:13.031Z,7.5
2019-03-10T04:15:08.227Z,7.4
2019-03-10T04:30:10.506Z,7.4
2019-03-10T04:45:10.909Z,7.3
2019-03-10T05:00:10.312Z,7.1
2019-03-10T05:15:06.164Z,7.1
2019-03-10T05:30:10.929Z,7.2
2019-03-10T05:45:02.734Z,7.2
2019-03-10T06:00:11.689Z,7.4
2019-03-10T06:15:07.162Z,7.6
2019-03-10T06:30:03.673Z,7.8
2019-03-10T06:45:13.152Z,8
2019-03-10T07:00:09.112Z,8.1
2019-03-10T07:15:05.733Z,8.1
2019-03-10T07:30:05.294Z,8.2
2019-03-10T07:45:09.746Z,8.4
2019-03-10T08:00:03.238Z,8.6
2019-03-10T08:15:06.819Z,8.9
2019-03-10T08:30:04.577Z,9.1
2019-03-10T08:45:03.912Z,9
2019-03-10T09:00:11.068Z,8.9
2019-03-10T09:15:07.015Z,8.8
2019-03-10T09:30:12.472Z,8.7
2019-03-10T09:45:07.208Z,8.6
2019-03-10T10:00:05.116Z,8.7
2019-03-10T10:15:12.832Z,8.7
2019-03-10T10:30:08.048Z,8.7
2019-03-10T10:45:12.110Z,8.7
2019-03-10T11:00:02.803Z,9
2019-03-10T11:15:07.186Z,9.1
2019-03-10T11:30:04.538Z,9.5
2019-03-10T11:45:12.323Z,9.9
2019-03-10T12:00:06.481Z,10
2019-03-10T12:15:12.883Z,10.3
2019-03-10T12:30:11.472Z,9.9
2019-03-10T12:45:09.400Z,9.9
2019-03-10T13:00:06.740Z,9.8
2019-03-10T13:15:08.039Z,10
2019-03-10T13:30:03.012Z,10.1
2019-03-10T13:45:10.893Z,10.2
2019-03-10T14:00:06.940Z,10.5
2019-03-10T14:15:04.273Z,10.6
2019-03-10T14:30:05.418Z,10.6
2019-03-10T14:45:04.334Z,10.7
2019-03-10T15:00:05.964Z,10.1
2019-03-10T15:15:03.853Z,9.6
2019-03-10T15:30:12.337Z,9.7
2019-03-10T15:45:06.951Z,9.5
2019-03-10T16:00:04.813Z,9.2
2019-03-10T16:15:11.276Z,9.1
2019-03-10T16:30:09.654Z,8.9
2019-03-10T16:45:05.848Z,8.8
2019-03-10T17:00:12.244Z,8.7
2019-03-10T17:15:11.520Z,8.5
2019-03-10T17:30:10.998Z,8.3
2019-03-10T17:45:05.112Z,8.5
2019-03-10T18:00:04.546Z,8.5
2019-03-10T18:15:09.241Z,8.3
2019-03-10T18:30:03.114Z,8.1
2019-03-10T18:45:06.038Z,7.8
2019-03-10T19:00:07.542Z,7.5
2019-03-10T19:15:07.389Z,7
2019-03-10T19:30:11.333Z,7
2019-03-10T19:45:02.958Z,7
2019-03-10T20:00:02.928Z,6.9
2019-03-10T20:15:05.523Z,6.9
2019-03-10T20:30:04.861Z,6.8
2019-03-10T20:45:09.544Z,6.6
2019-03-10T21:00:09.658Z,6.6
2019-03-10T21:15:12.808Z,6.5
2019-03-10T21:30:12.825Z,6.5
2019-03-10T21:45:05.076Z,6.5
2019-03-10T22:00:04.448Z,6.3
2019-03-10T22:15:05.216Z,6.1
2019-03-10T22:30:11.973Z,5.8
2019-03-10T22:45:09.522Z,5.7
2019-03-10T23:00:09.704Z,5.3
2019-03-10T23:15:08.440Z,5.3
2019-03-10T23:30:08.320Z,5.1
2019-03-10T23:45:09.669Z,5
